Kocaeli Köseköy Heliport

TR-0003 · 科贾埃利省, 土耳其

罗盘
风向 的 直升机
风: 2 kt, 1 beaufort
0 ft 1.000 2.000 3.000 4.000 5.000
Cloud Cloud Cloud Cloud Cloud Cloud
BKN 800
Cloud Cloud Cloud Cloud Cloud Cloud
BKN 2.000
METAR LTBQ 032250Z VRB02KT 4000 BR BKN008 BKN020 09/08 Q1016 BECMG FM0000 2000 RMK RWY09 VRB01KT

METAR Kocaeli Köseköy Heliport - TR-0003

Kocaeli Köseköy Heliport是,土耳其中的直升机场。 该机场位于纬度40,76222和经度30,00236。 这个机场没有ICAO代码,我们使用TR-0003作为参考。 机场在Istanbul FIR中。

该航空气象观测是针对Cengiz Topel Airport在2024年3月4日 01:50, 当地时间进行的。

机场观察

可变方向的风很小或没有风。

可见度为4 km。

有碎云在800 ft的高度 和 碎云在2.000 ft的高度。 破损或更高的上限为800 ft。

当前天气为薄雾。 温度为9 °C,阵风为8 °C。 露点为8 °C,相对湿度为94%。 海平面上的气压为1016 hPa (QNH)。

发展趋势

  • 变得

    可变方向的风很小或没有。 可见性变为2 km。

白天

今天,太阳从07:30升起,在18:53降落。 这适用于Kocaeli Köseköy Heliport,世界夏令时可能有所不同。 当地时间与世界标准时间之间的时差为+3 小时。 当前,没有夏令时有效。

公司介绍

我们没有关于这个机场的公司信息。

体会

到Vliegles.nl去找飞行课程,跳伞和其他飞行体验。 浏览页面,了解Kocaeli Köseköy Heliport附近所有可用的活动。 你也可以使用搜索功能来寻找你所在地附近的特定飞行课程、跳伞或其他飞行体验。

乌云

800 ft BKN 碎云
2.000 ft BKN 碎云

温度 & 天气

天气 薄雾
温度 9 °C
露点 8 °C
相对湿度 94%
风寒 8 °C
Kp-index 4 (0-9)

评论

VRB01KT未知降水 开始于 01, 结束于
RWY09

白天

日出
07:29 (5:05)
中午
13:11
日落
18:53

小工具

你想在你的网站上有一个关于Kocaeli Köseköy Heliport的当前航空天气(METAR)的小部件吗?

显示HTML代码
?>